Time;durP1;ratioP1;P1;durP2;ratioP2;P2;SDS_P1;SDS_P2;PMS_P1;PMS_P2;Temp;Humidity;BMP_temperature;BMP_pressure;BME280_temperature;BME280_humidity;BME280_pressure;Samples;Min_cycle;Max_cycle;Signal;HPM_P1;HPM_P2
2022/01/24 00:00:35;;;;;;;38.70;18.40;;;;;;;0.32;57.13;100759.45;221303;1276;139778;-60
2022/01/24 00:05:42;;;;;;;36.70;17.60;;;;;;;0.21;57.18;100771.23;221251;1277;140272;-63
2022/01/24 00:10:47;;;;;;;38.70;18.90;;;;;;;0.11;57.18;100775.35;221357;1275;143158;-61
2022/01/24 00:16:14;;;;;;;36.60;17.90;;;;;;;0.03;56.98;100778.06;221321;1274;140020;-61
2022/01/24 00:26:46;;;;;;;35.40;17.10;;;;;;;-0.16;56.94;100774.75;221398;1276;141596;-62
2022/01/24 00:31:51;;;;;;;35.30;16.60;;;;;;;-0.20;57.24;100773.64;221322;1274;139676;-59
2022/01/24 00:36:54;;;;;;;32.50;16.50;;;;;;;-0.24;57.03;100770.84;221197;1274;139659;-60
2022/01/24 00:42:13;;;;;;;33.40;17.20;;;;;;;-0.33;57.01;100773.89;221361;1275;139830;-58
2022/01/24 00:47:43;;;;;;;31.80;15.90;;;;;;;-0.41;57.03;100769.61;221378;1276;140824;-60
2022/01/24 00:58:23;;;;;;;33.10;16.90;;;;;;;-0.64;57.16;100766.39;220259;1276;140198;-60
2022/01/24 01:03:26;;;;;;;32.30;16.80;;;;;;;-0.71;57.35;100765.11;221494;1276;139550;-61
2022/01/24 01:19:13;;;;;;;37.90;18.40;;;;;;;-0.96;57.31;100770.91;220761;1275;140394;-61
2022/01/24 01:24:17;;;;;;;40.70;18.40;;;;;;;-1.03;57.57;100772.38;221264;1276;139615;-58
2022/01/24 01:29:29;;;;;;;40.00;20.20;;;;;;;-1.10;57.38;100771.23;221392;1276;141139;-60
2022/01/24 01:55:39;;;;;;;43.90;19.80;;;;;;;-1.50;57.72;100780.44;221349;1276;139455;-61
2022/01/24 02:00:47;;;;;;;45.30;20.10;;;;;;;-1.61;57.71;100780.60;221165;1276;140136;-62
2022/01/24 02:05:51;;;;;;;41.00;20.90;;;;;;;-1.70;57.74;100786.73;221295;1275;139998;-61
2022/01/24 02:10:55;;;;;;;45.30;20.60;;;;;;;-1.78;57.77;100793.39;221396;1276;139593;-61
2022/01/24 02:21:09;;;;;;;48.40;20.80;;;;;;;-1.97;57.98;100790.64;221389;1276;140386;-61
2022/01/24 02:26:19;;;;;;;44.90;20.40;;;;;;;-2.06;57.95;100791.17;221200;1276;139448;-61
2022/01/24 02:36:38;;;;;;;47.70;21.50;;;;;;;-2.28;58.09;100797.05;221391;1276;140143;-60
2022/01/24 02:52:36;;;;;;;46.30;21.40;;;;;;;-2.54;58.32;100802.29;220563;1276;141134;-62
2022/01/24 02:57:39;;;;;;;43.20;21.40;;;;;;;-2.62;58.30;100804.56;221072;1277;139017;-61
2022/01/24 03:02:42;;;;;;;43.00;22.10;;;;;;;-2.71;58.24;100810.98;221035;1276;140707;-61
2022/01/24 03:07:45;;;;;;;43.30;21.60;;;;;;;-2.80;58.35;100810.11;220952;1276;139983;-60
2022/01/24 03:12:58;;;;;;;44.40;21.40;;;;;;;-2.91;58.35;100814.77;221127;1276;139489;-62
2022/01/24 03:18:00;;;;;;;46.50;21.90;;;;;;;-3.01;58.22;100814.89;221748;1276;140590;-60
2022/01/24 03:23:04;;;;;;;47.20;22.10;;;;;;;-3.12;58.38;100813.42;221421;1275;139776;-61
2022/01/24 03:28:08;;;;;;;46.20;22.20;;;;;;;-3.22;58.29;100819.29;221434;1274;139898;-64
2022/01/24 03:33:11;;;;;;;47.20;22.60;;;;;;;-3.30;58.53;100819.09;221151;1276;139849;-62
2022/01/24 03:38:14;;;;;;;44.80;21.50;;;;;;;-3.40;58.35;100823.73;221123;1277;140149;-62
2022/01/24 03:43:17;;;;;;;48.70;22.90;;;;;;;-3.51;58.46;100828.49;221350;1275;139381;-62
2022/01/24 03:48:37;;;;;;;52.80;23.30;;;;;;;-3.56;58.50;100831.85;221284;1275;139752;-61
2022/01/24 03:53:42;;;;;;;46.50;22.90;;;;;;;-3.67;58.53;100836.45;221246;1275;139667;-60
2022/01/24 03:58:45;;;;;;;48.00;22.10;;;;;;;-3.80;58.57;100846.71;221311;1276;140244;-60
2022/01/24 04:03:49;;;;;;;47.30;21.90;;;;;;;-3.88;58.80;100856.73;221284;1276;139801;-60
2022/01/24 04:08:53;;;;;;;46.80;22.40;;;;;;;-3.92;58.90;100859.05;221216;1275;234797;-61
2022/01/24 04:14:09;;;;;;;49.00;23.20;;;;;;;-3.97;58.93;100851.45;221379;1275;140611;-61
2022/01/24 04:21:17;;;;;;;53.60;22.70;;;;;;;-4.02;59.00;100859.83;221385;1276;139969;-61
2022/01/24 04:24:36;;;;;;;46.50;23.10;;;;;;;-4.11;58.96;100865.52;221307;1275;139415;-64
2022/01/24 04:29:40;;;;;;;50.30;23.90;;;;;;;-4.17;59.22;100868.96;221508;1275;140187;-65
2022/01/24 04:34:43;;;;;;;46.80;22.60;;;;;;;-4.21;59.07;100866.27;221337;1275;139391;-66
2022/01/24 04:39:48;;;;;;;47.90;22.00;;;;;;;-4.30;59.00;100867.59;221306;1276;140256;-63
2022/01/24 04:55:15;;;;;;;79.60;37.10;;;;;;;-4.15;59.59;100874.73;221326;1276;140210;-61
2022/01/24 05:00:18;;;;;;;53.30;25.60;;;;;;;-4.28;58.91;100882.55;221295;1276;140850;-62
2022/01/24 05:05:24;;;;;;;54.80;24.70;;;;;;;-4.43;58.90;100879.54;221168;1275;140187;-63
2022/01/24 05:10:37;;;;;;;52.40;25.40;;;;;;;-4.52;58.96;100879.80;221264;1276;139863;-61
2022/01/24 05:26:23;;;;;;;58.90;25.70;;;;;;;-4.55;58.87;100881.77;221432;1275;140931;-63
2022/01/24 05:31:26;;;;;;;57.80;25.20;;;;;;;-4.68;58.78;100887.80;221370;1275;142785;-61
2022/01/24 05:36:29;;;;;;;55.20;26.40;;;;;;;-4.78;58.98;100895.30;221339;1275;139943;-60
2022/01/24 05:41:32;;;;;;;56.70;26.00;;;;;;;-4.83;59.15;100895.66;221453;1276;139714;-60
2022/01/24 05:46:35;;;;;;;51.30;25.30;;;;;;;-4.91;59.05;100899.58;221313;1275;139622;-61
2022/01/24 05:51:39;;;;;;;51.80;24.80;;;;;;;-4.97;59.32;100905.45;221409;1275;139561;-62
2022/01/24 05:56:42;;;;;;;55.20;24.90;;;;;;;-4.99;59.26;100913.70;221349;1275;140741;-66
2022/01/24 06:01:45;;;;;;;52.60;25.70;;;;;;;-5.02;59.45;100918.64;221384;1275;139896;-58
2022/01/24 06:06:48;;;;;;;55.00;25.70;;;;;;;-5.01;59.56;100924.02;221181;1275;139659;-64
2022/01/24 06:11:51;;;;;;;63.80;27.40;;;;;;;-5.03;59.55;100927.10;221515;1275;139732;-65
2022/01/24 06:16:54;;;;;;;53.50;26.30;;;;;;;-5.06;59.45;100926.63;221258;1276;139658;-62
2022/01/24 06:21:57;;;;;;;60.30;27.70;;;;;;;-5.10;59.66;100935.17;221070;1277;139820;-64
2022/01/24 06:27:00;;;;;;;64.10;28.30;;;;;;;-5.09;59.67;100941.09;221454;1276;140201;-66
2022/01/24 06:32:04;;;;;;;60.90;27.90;;;;;;;-5.11;59.60;100938.41;221028;1276;140288;-64
2022/01/24 06:37:07;;;;;;;56.60;27.30;;;;;;;-5.08;59.76;100938.66;221012;1276;139610;-64
2022/01/24 06:42:21;;;;;;;58.60;28.40;;;;;;;-5.07;59.52;100939.58;221273;1277;140386;-67
2022/01/24 06:47:25;;;;;;;61.00;27.30;;;;;;;-5.11;59.41;100943.61;221351;1276;140425;-61
2022/01/24 06:52:28;;;;;;;66.80;27.40;;;;;;;-5.14;59.22;100944.39;221285;1275;140325;-63
2022/01/24 06:57:31;;;;;;;57.20;26.70;;;;;;;-5.22;58.96;100953.79;221283;1275;140478;-63
2022/01/24 07:02:34;;;;;;;58.30;28.20;;;;;;;-5.31;58.94;100953.67;221368;1276;139908;-64
2022/01/24 07:07:38;;;;;;;57.10;27.30;;;;;;;-5.41;58.98;100953.02;221025;1276;140115;-60
2022/01/24 07:12:41;;;;;;;57.40;27.40;;;;;;;-5.41;59.19;100949.55;221327;1276;139963;-61
2022/01/24 07:18:12;;;;;;;57.30;27.40;;;;;;;-5.37;59.37;100953.64;221505;1276;139706;-61
2022/01/24 07:23:15;;;;;;;56.30;28.80;;;;;;;-5.29;59.48;100952.37;221123;1276;140635;-59
2022/01/24 07:28:19;;;;;;;67.30;31.90;;;;;;;-5.18;59.83;100957.22;221354;1275;139735;-63
2022/01/24 07:33:22;;;;;;;65.60;32.50;;;;;;;-5.08;59.82;100955.48;221269;1276;139314;-63
2022/01/24 07:38:25;;;;;;;69.00;32.20;;;;;;;-4.94;59.79;100964.05;221283;1276;139953;-60
2022/01/24 07:43:28;;;;;;;67.80;32.60;;;;;;;-4.82;59.76;100965.80;221341;1275;140267;-66
2022/01/24 07:48:31;;;;;;;70.20;32.50;;;;;;;-4.70;60.01;100968.27;221222;1274;140765;-60
2022/01/24 07:53:34;;;;;;;68.50;34.00;;;;;;;-4.58;60.17;100965.17;221544;1276;140249;-58
2022/01/24 07:58:45;;;;;;;72.80;34.90;;;;;;;-4.43;60.26;100959.72;221342;1274;140595;-59
2022/01/24 08:03:48;;;;;;;70.60;35.80;;;;;;;-4.31;60.37;100957.13;221303;1274;140415;-60
2022/01/24 08:08:52;;;;;;;76.30;37.40;;;;;;;-4.19;60.42;100956.26;221282;1275;140467;-60
2022/01/24 08:13:55;;;;;;;82.70;37.10;;;;;;;-4.05;60.48;100953.52;221401;1276;142432;-59
2022/01/24 08:18:59;;;;;;;82.50;38.50;;;;;;;-3.91;60.60;100950.10;220854;1275;140088;-60
2022/01/24 08:24:05;;;;;;;76.50;38.00;;;;;;;-3.74;60.58;100950.20;221402;1275;141458;-62
2022/01/24 08:29:08;;;;;;;88.40;41.50;;;;;;;-3.61;60.54;100945.70;221239;1277;139937;-59
2022/01/24 08:34:11;;;;;;;84.40;42.10;;;;;;;-3.45;60.64;100945.74;221336;1277;141734;-62
2022/01/24 08:39:15;;;;;;;82.70;41.00;;;;;;;-3.25;60.62;100953.20;221011;1277;139951;-59
2022/01/24 08:49:36;;;;;;;84.60;40.00;;;;;;;-2.87;60.50;100956.53;220991;1277;139645;-62
2022/01/24 08:54:39;;;;;;;83.10;39.50;;;;;;;-2.74;60.38;100960.29;221364;1277;140831;-60
2022/01/24 08:59:42;;;;;;;88.90;39.40;;;;;;;-2.57;60.32;100963.65;221368;1276;140725;-62
2022/01/24 09:04:46;;;;;;;84.90;41.00;;;;;;;-2.40;60.19;100970.45;221269;1277;140139;-63
2022/01/24 09:09:51;;;;;;;80.80;40.50;;;;;;;-2.23;60.30;100970.47;221294;1275;140111;-62
2022/01/24 09:14:54;;;;;;;86.40;40.70;;;;;;;-2.09;59.92;100968.31;221239;1277;140746;-63
2022/01/24 09:19:57;;;;;;;77.20;38.20;;;;;;;-1.98;59.96;100961.06;221116;1276;139645;-60
2022/01/24 09:25:18;;;;;;;77.30;37.10;;;;;;;-1.83;59.79;100959.09;221388;1277;139816;-60
2022/01/24 09:30:23;;;;;;;74.70;36.20;;;;;;;-1.70;59.96;100961.25;221197;1277;140795;-60
2022/01/24 09:35:29;;;;;;;69.00;36.50;;;;;;;-1.55;59.84;100954.73;221257;1276;141180;-61
2022/01/24 09:40:33;;;;;;;70.00;35.00;;;;;;;-1.37;59.73;100957.31;221340;1275;139635;-60
2022/01/24 09:45:37;;;;;;;75.20;38.50;;;;;;;-1.21;59.74;100959.50;221402;1275;139675;-60
2022/01/24 09:50:40;;;;;;;84.00;39.40;;;;;;;-1.04;59.54;100954.39;221256;1277;139377;-63
2022/01/24 09:55:43;;;;;;;72.30;36.20;;;;;;;-0.87;59.31;100954.13;221264;1276;140068;-59
2022/01/24 10:00:47;;;;;;;80.90;39.00;;;;;;;-0.70;59.28;100945.49;221275;1276;140154;-60
2022/01/24 10:05:55;;;;;;;76.70;38.30;;;;;;;-0.56;59.06;100934.70;221446;1276;139939;-66
2022/01/24 10:11:08;;;;;;;76.40;36.10;;;;;;;-0.40;59.03;100933.35;221228;1276;139872;-61
2022/01/24 10:16:33;;;;;;;81.50;38.30;;;;;;;-0.25;58.92;100925.52;221281;1276;140157;-61
2022/01/24 10:21:44;;;;;;;84.20;36.10;;;;;;;-0.08;58.56;100918.23;221197;1276;140565;-61
2022/01/24 10:27:17;;;;;;;74.10;36.50;;;;;;;0.09;58.60;100917.88;221278;1276;139330;-62
2022/01/24 10:32:32;;;;;;;76.70;37.30;;;;;;;0.32;58.44;100906.77;221324;1275;140708;-61
2022/01/24 10:37:35;;;;;;;76.00;36.80;;;;;;;0.54;58.31;100905.23;221409;1275;140080;-62
2022/01/24 10:42:52;;;;;;;77.00;38.10;;;;;;;0.69;57.99;100901.86;221370;1275;139272;-62
2022/01/24 10:47:55;;;;;;;77.30;37.90;;;;;;;0.87;57.87;100897.64;221325;1276;138743;-63
2022/01/24 10:53:10;;;;;;;112.80;52.50;;;;;;;1.14;58.44;100896.95;221310;1275;143387;-62
2022/01/24 10:58:18;;;;;;;57.40;28.20;;;;;;;1.50;58.01;100888.58;221314;1275;141452;-62
2022/01/24 11:03:21;;;;;;;50.20;24.10;;;;;;;1.69;57.58;100882.53;221136;1276;138917;-60
2022/01/24 11:08:26;;;;;;;40.80;20.70;;;;;;;1.80;56.86;100869.80;221353;1276;140741;-59
2022/01/24 11:13:31;;;;;;;30.40;17.70;;;;;;;1.82;56.44;100858.42;221298;1276;139962;-62
2022/01/24 11:18:34;;;;;;;26.50;15.30;;;;;;;1.77;56.14;100856.67;221352;1276;139329;-62
2022/01/24 11:23:40;;;;;;;27.20;13.60;;;;;;;1.77;55.92;100848.63;221407;1276;139467;-61
2022/01/24 11:28:44;;;;;;;;;;;;;;;1.77;55.55;100836.73;221365;1274;139248;-62
2022/01/24 11:33:59;;;;;;;24.80;14.30;;;;;;;1.69;55.51;100834.44;221426;1276;125377;-61
2022/01/24 11:39:04;;;;;;;22.90;12.40;;;;;;;1.60;55.31;100834.92;221103;1274;141191;-61
2022/01/24 11:44:16;;;;;;;24.40;13.40;;;;;;;1.56;54.99;100834.04;221336;1276;140275;-61
2022/01/24 11:49:23;;;;;;;23.20;12.80;;;;;;;1.60;54.99;100835.45;221315;1274;139702;-63
2022/01/24 12:00:01;;;;;;;26.40;12.20;;;;;;;1.73;54.74;100825.17;221426;1276;139986;-61
2022/01/24 12:05:16;;;;;;;22.80;12.10;;;;;;;1.82;54.50;100814.35;221299;1275;140036;-61
2022/01/24 12:10:23;;;;;;;23.50;12.60;;;;;;;1.98;54.53;100815.41;221240;1276;140005;-62
2022/01/24 12:15:38;;;;;;;19.30;12.00;;;;;;;2.09;54.24;100814.91;221317;1275;139889;-63
2022/01/24 12:20:42;;;;;;;24.50;13.90;;;;;;;2.14;53.79;100814.39;221363;1276;141843;-61
2022/01/24 12:26:05;;;;;;;20.20;12.00;;;;;;;2.15;53.78;100815.45;221203;1274;139611;-62
2022/01/24 12:31:13;;;;;;;21.20;12.30;;;;;;;2.20;53.69;100816.49;221325;1274;139640;-61
2022/01/24 12:36:36;;;;;;;24.80;12.60;;;;;;;2.22;53.57;100817.38;221329;1275;139430;-62
2022/01/24 12:41:46;;;;;;;25.00;13.00;;;;;;;2.23;53.39;100818.95;221409;1276;139592;-62
2022/01/24 12:46:50;;;;;;;24.40;12.70;;;;;;;2.31;53.46;100823.33;221245;1275;140541;-64
2022/01/24 12:51:53;;;;;;;22.50;13.20;;;;;;;2.44;53.43;100825.62;221317;1274;139292;-63
2022/01/24 12:57:07;;;;;;;22.30;14.30;;;;;;;2.52;53.33;100824.91;221286;1274;139536;-62
2022/01/24 13:02:10;;;;;;;26.90;14.70;;;;;;;2.57;53.44;100825.43;221230;1276;140261;-62
2022/01/24 13:07:13;;;;;;;26.10;14.70;;;;;;;2.64;53.43;100823.16;220970;1276;139047;-61
2022/01/24 13:12:21;;;;;;;669.20;407.00;;;;;;;2.67;53.55;100813.69;221465;1276;140243;-60
2022/01/24 13:27:54;;;;;;;30.60;17.50;;;;;;;2.61;52.78;100813.00;221253;1276;139390;-60
2022/01/24 13:33:00;;;;;;;29.30;17.40;;;;;;;2.49;52.85;100808.61;221260;1276;139274;-63
2022/01/24 13:38:12;;;;;;;29.50;17.20;;;;;;;2.48;52.97;100809.67;221111;1275;139641;-63
2022/01/24 13:43:15;;;;;;;32.50;18.00;;;;;;;2.50;52.88;100801.96;221192;1275;139699;-63
2022/01/24 13:48:21;;;;;;;36.00;18.80;;;;;;;2.57;52.96;100775.85;221450;1276;141464;-63
2022/01/24 13:53:44;;;;;;;33.80;18.00;;;;;;;2.65;52.77;100771.83;221282;1277;139791;-62
2022/01/24 13:59:13;;;;;;;37.80;19.30;;;;;;;2.60;52.57;100767.27;221270;1274;139632;-63
2022/01/24 14:04:40;;;;;;;56.40;30.50;;;;;;;2.64;53.19;100767.42;221163;1275;139439;-62
2022/01/24 14:09:49;;;;;;;43.50;22.80;;;;;;;2.69;52.80;100770.93;221113;1276;140804;-62
2022/01/24 14:15:05;;;;;;;45.80;22.70;;;;;;;2.57;52.65;100780.74;221274;1275;140194;-61
2022/01/24 14:20:11;;;;;;;40.50;21.50;;;;;;;2.44;52.63;100773.25;221275;1275;141528;-63
2022/01/24 14:25:21;;;;;;;42.60;19.90;;;;;;;2.24;52.46;100769.04;221085;1275;139604;-63
2022/01/24 14:30:26;;;;;;;37.00;18.90;;;;;;;2.08;52.28;100763.98;221282;1276;140373;-63
2022/01/24 14:35:35;;;;;;;43.70;20.50;;;;;;;1.99;52.24;100770.96;221257;1274;139727;-62
2022/01/24 14:40:46;;;;;;;41.30;21.00;;;;;;;1.90;52.12;100765.00;221174;1275;139734;-57
2022/01/24 14:45:49;;;;;;;39.60;21.00;;;;;;;1.85;52.14;100761.14;221160;1275;140912;-62
2022/01/24 14:50:52;;;;;;;48.50;23.20;;;;;;;1.78;52.13;100759.92;221348;1276;139889;-60
2022/01/24 14:55:55;;;;;;;42.00;22.40;;;;;;;1.73;52.22;100767.43;221288;1274;140568;-62
2022/01/24 15:00:58;;;;;;;41.80;24.70;;;;;;;1.65;52.24;100764.45;221179;1274;139679;-58
2022/01/24 15:06:02;;;;;;;46.70;23.70;;;;;;;1.52;52.45;100763.19;221393;1275;140293;-61
2022/01/24 15:11:06;;;;;;;41.00;21.20;;;;;;;1.40;52.60;100764.39;221201;1275;139987;-62
2022/01/24 15:16:18;;;;;;;42.90;19.70;;;;;;;1.27;53.09;100762.95;221070;1276;139345;-58
2022/01/24 15:26:43;;;;;;;37.70;18.70;;;;;;;1.04;53.50;100763.20;221249;1276;140437;-59
2022/01/24 15:31:47;;;;;;;33.90;18.70;;;;;;;0.95;53.69;100761.75;221093;1275;141285;-60
2022/01/24 15:36:50;;;;;;;42.40;22.20;;;;;;;0.92;54.24;100757.71;221133;1274;138968;-61
2022/01/24 15:52:16;;;;;;;50.20;23.50;;;;;;;0.85;54.14;100753.84;221310;1275;138948;-61
2022/01/24 15:57:42;;;;;;;50.00;24.40;;;;;;;0.82;54.49;100755.23;221112;1275;139012;-58
2022/01/24 16:02:48;;;;;;;46.40;23.60;;;;;;;0.80;54.51;100752.92;221311;1277;139765;-58
2022/01/24 16:07:54;;;;;;;52.80;25.70;;;;;;;0.76;54.59;100748.90;221151;1275;174478;-60
2022/01/24 16:12:57;;;;;;;;;;;;;;;0.75;54.97;100749.09;221302;1275;141252;-59
2022/01/24 16:18:01;;;;;;;49.80;24.60;;;;;;;0.75;54.92;100744.88;221457;1275;125995;-60
2022/01/24 16:23:31;;;;;;;46.00;22.80;;;;;;;0.74;54.64;100749.58;221351;1275;139638;-61
2022/01/24 16:28:33;;;;;;;43.30;23.70;;;;;;;0.73;54.64;100742.08;221276;1274;139303;-61
2022/01/24 16:33:36;;;;;;;52.50;24.00;;;;;;;0.74;54.88;100745.05;221332;1275;139608;-60
2022/01/24 16:38:42;;;;;;;41.00;22.30;;;;;;;0.76;54.93;100753.09;221281;1275;140437;-61
2022/01/24 16:48:50;;;;;;;38.30;22.00;;;;;;;0.79;54.65;100749.45;221238;1275;139832;-59
2022/01/24 16:53:57;;;;;;;41.60;21.40;;;;;;;0.80;54.58;100747.00;221472;1277;139239;-60
2022/01/24 16:59:00;;;;;;;45.90;22.20;;;;;;;0.83;54.69;100745.27;221248;1276;139368;-61
2022/01/24 17:04:04;;;;;;;47.20;23.40;;;;;;;0.86;54.85;100744.58;221274;1276;139231;-57
2022/01/24 17:09:09;;;;;;;44.30;22.10;;;;;;;0.86;54.87;100741.80;221178;1274;139008;-61
2022/01/24 17:14:15;;;;;;;45.60;22.60;;;;;;;0.89;54.88;100746.86;221192;1275;139567;-58
2022/01/24 17:19:20;;;;;;;42.80;22.50;;;;;;;0.91;54.94;100752.81;221297;1276;139033;-61
2022/01/24 17:24:23;;;;;;;48.30;24.10;;;;;;;0.92;55.12;100748.81;221472;1276;139527;-59
2022/01/24 17:29:47;;;;;;;51.20;26.30;;;;;;;0.95;55.25;100755.11;221322;1276;140174;-61
2022/01/24 17:35:09;;;;;;;132.30;63.20;;;;;;;0.99;56.02;100746.05;221176;1276;140000;-59
2022/01/24 17:40:14;;;;;;;61.20;31.30;;;;;;;1.45;56.81;100740.42;221156;1275;139596;-61
2022/01/24 17:45:24;;;;;;;64.00;30.40;;;;;;;1.46;55.47;100732.92;221420;1275;139689;-60
2022/01/24 17:50:28;;;;;;;54.20;29.20;;;;;;;1.36;55.09;100727.82;221313;1276;139920;-60
2022/01/24 17:55:32;;;;;;;54.70;28.10;;;;;;;1.28;55.11;100723.60;221324;1275;139993;-60
2022/01/24 18:00:35;;;;;;;66.10;30.00;;;;;;;1.19;54.80;100728.82;221239;1276;139027;-62
2022/01/24 18:05:40;;;;;;;61.00;29.10;;;;;;;1.13;54.93;100729.84;221172;1276;140025;-59
2022/01/24 18:10:44;;;;;;;48.80;26.20;;;;;;;1.12;54.88;100727.75;221306;1275;139563;-64
2022/01/24 18:15:49;;;;;;;130.90;63.70;;;;;;;1.09;54.78;100721.98;221067;1275;140041;-61
2022/01/24 18:20:52;;;;;;;53.10;24.70;;;;;;;1.17;54.80;100716.92;221295;1275;141131;-60
2022/01/24 18:25:56;;;;;;;47.20;24.00;;;;;;;1.14;54.42;100721.46;221306;1275;139681;-59
2022/01/24 18:31:00;;;;;;;45.60;24.40;;;;;;;1.10;54.16;100727.73;221362;1275;139884;-59
2022/01/24 18:36:04;;;;;;;50.30;24.00;;;;;;;1.00;54.13;100725.95;221339;1276;139241;-59
2022/01/24 18:41:07;;;;;;;50.40;23.60;;;;;;;0.94;54.29;100719.64;221298;1275;138846;-61
2022/01/24 18:46:11;;;;;;;48.00;24.50;;;;;;;0.89;54.23;100724.51;221252;1276;139913;-59
2022/01/24 18:51:15;;;;;;;56.00;27.30;;;;;;;0.94;54.71;100720.86;221266;1276;141881;-62
2022/01/24 18:56:18;;;;;;;52.00;24.50;;;;;;;1.04;54.43;100722.48;221326;1275;139256;-61
2022/01/24 19:01:21;;;;;;;51.30;24.50;;;;;;;0.97;54.20;100713.36;221230;1277;142016;-63
2022/01/24 19:06:24;;;;;;;49.10;25.00;;;;;;;0.90;54.23;100714.20;221372;1275;139986;-59
2022/01/24 19:11:30;;;;;;;52.00;24.40;;;;;;;0.86;54.17;100710.35;221161;1275;139464;-59
2022/01/24 19:16:33;;;;;;;47.70;26.10;;;;;;;0.78;54.11;100701.57;221315;1276;140121;-62
2022/01/24 19:26:58;;;;;;;50.80;25.10;;;;;;;0.77;54.42;100702.96;221259;1275;140950;-59
2022/01/24 19:32:01;;;;;;;149.50;85.50;;;;;;;0.83;54.85;100706.31;221166;1275;139739;-61
2022/01/24 19:37:04;;;;;;;60.10;29.10;;;;;;;1.19;56.00;100706.80;221371;1275;139686;-60
2022/01/24 19:42:08;;;;;;;47.40;24.40;;;;;;;1.35;54.86;100705.97;221240;1276;139851;-62
2022/01/24 19:47:11;;;;;;;47.40;25.90;;;;;;;1.24;54.36;100701.56;221175;1275;139446;-59
2022/01/24 19:52:14;;;;;;;52.70;26.10;;;;;;;1.12;54.19;100700.13;221197;1275;140103;-61
2022/01/24 19:57:26;;;;;;;52.00;25.30;;;;;;;1.02;54.11;100700.80;221232;1276;139571;-58
2022/01/24 20:02:30;;;;;;;54.70;27.10;;;;;;;0.96;54.29;100698.14;221309;1276;139534;-60
2022/01/24 20:07:33;;;;;;;58.80;29.10;;;;;;;0.93;54.27;100690.45;221265;1275;139753;-62
2022/01/24 20:12:36;;;;;;;57.50;30.50;;;;;;;0.91;54.21;100688.34;221424;1275;140899;-63
2022/01/24 20:17:39;;;;;;;67.20;33.20;;;;;;;0.88;54.45;100685.89;221285;1275;139104;-63
2022/01/24 20:22:42;;;;;;;64.30;33.70;;;;;;;0.88;54.29;100688.86;221320;1275;140669;-62
2022/01/24 20:27:45;;;;;;;73.20;36.20;;;;;;;0.88;54.32;100692.88;221300;1276;142135;-61
2022/01/24 20:32:52;;;;;;;90.20;44.70;;;;;;;0.87;54.60;100691.14;221331;1275;142572;-64
2022/01/24 20:37:55;;;;;;;73.70;38.30;;;;;;;0.99;54.76;100687.33;221190;1276;140154;-63
2022/01/24 20:43:04;;;;;;;76.10;38.80;;;;;;;0.95;54.51;100688.02;221368;1275;140077;-61
2022/01/24 20:48:07;;;;;;;79.70;40.60;;;;;;;0.88;54.39;100687.81;221535;1275;139382;-63
2022/01/24 20:53:10;;;;;;;83.10;40.80;;;;;;;0.82;54.63;100683.79;221283;1275;139899;-63
2022/01/24 20:58:15;;;;;;;113.40;57.70;;;;;;;0.82;54.69;100678.71;221160;1276;140032;-62
2022/01/24 21:03:18;;;;;;;82.20;39.90;;;;;;;0.90;54.96;100679.45;221201;1275;140189;-62
2022/01/24 21:08:21;;;;;;;77.00;39.00;;;;;;;0.90;54.70;100672.45;221312;1275;140777;-60
2022/01/24 21:13:43;;;;;;;79.40;38.50;;;;;;;0.84;54.62;100671.20;221340;1275;139256;-62
2022/01/24 21:18:46;;;;;;;77.80;41.20;;;;;;;0.77;54.62;100671.52;221409;1275;139949;-61
2022/01/24 21:23:51;;;;;;;81.80;39.30;;;;;;;0.74;54.63;100675.17;221209;1276;140202;-62
2022/01/24 21:28:55;;;;;;;83.80;42.10;;;;;;;0.72;54.82;100673.42;221284;1276;139575;-59
2022/01/24 21:34:26;;;;;;;77.40;39.50;;;;;;;0.70;54.94;100663.11;221042;1276;139649;-60
2022/01/24 21:39:29;;;;;;;89.00;43.00;;;;;;;0.70;55.23;100669.05;221394;1277;139518;-62
2022/01/24 21:44:33;;;;;;;85.50;42.00;;;;;;;0.71;55.11;100670.11;221031;1276;139619;-60
2022/01/24 21:49:36;;;;;;;94.20;44.60;;;;;;;0.71;55.04;100665.21;221328;1276;140507;-61
2022/01/24 21:54:40;;;;;;;102.20;45.90;;;;;;;0.67;55.11;100658.55;221399;1276;139970;-63
2022/01/24 21:59:47;;;;;;;95.90;47.20;;;;;;;0.65;55.28;100650.68;221362;1277;140640;-62
2022/01/24 22:04:50;;;;;;;101.30;49.50;;;;;;;0.64;55.41;100648.94;221453;1276;139654;-63
2022/01/24 22:09:53;;;;;;;110.20;50.90;;;;;;;0.64;55.48;100647.89;221320;1276;139532;-60
2022/01/24 22:14:56;;;;;;;107.80;52.30;;;;;;;0.66;55.44;100645.80;221212;1276;141645;-60
2022/01/24 22:19:59;;;;;;;111.00;52.80;;;;;;;0.67;55.64;100638.65;221321;1277;140166;-62
2022/01/24 22:25:04;;;;;;;131.10;59.30;;;;;;;0.66;55.64;100631.83;221294;1277;139135;-61
2022/01/24 22:30:07;;;;;;;121.90;56.30;;;;;;;0.65;55.74;100628.16;221380;1275;139347;-64
2022/01/24 22:35:15;;;;;;;120.90;57.70;;;;;;;0.67;55.93;100627.30;221219;1276;139809;-61
2022/01/24 22:40:18;;;;;;;132.90;64.80;;;;;;;0.70;55.93;100622.06;221364;1274;140251;-61
2022/01/24 22:45:21;;;;;;;147.10;66.20;;;;;;;0.74;56.13;100619.98;221193;1276;139941;-59
2022/01/24 22:50:25;;;;;;;155.20;73.40;;;;;;;0.77;56.13;100611.44;221248;1274;140372;-59
2022/01/24 22:55:28;;;;;;;162.00;71.40;;;;;;;0.75;56.22;100600.23;221203;1277;140485;-62
2022/01/24 23:00:40;;;;;;;156.30;73.60;;;;;;;0.76;56.51;100592.03;221410;1277;139745;-62
2022/01/24 23:05:43;;;;;;;162.60;72.90;;;;;;;0.79;56.43;100591.01;221262;1277;139537;-62
2022/01/24 23:10:47;;;;;;;151.30;70.50;;;;;;;0.81;56.47;100589.77;221257;1276;141400;-60
2022/01/24 23:21:12;;;;;;;155.30;69.40;;;;;;;0.82;56.58;100578.27;221359;1276;140108;-61
2022/01/24 23:26:15;;;;;;;157.80;69.60;;;;;;;0.86;56.90;100574.42;221287;1276;139726;-59
2022/01/24 23:31:18;;;;;;;151.20;69.30;;;;;;;0.93;56.87;100575.48;221297;1276;139707;-58
2022/01/24 23:41:48;;;;;;;142.10;67.40;;;;;;;1.04;56.92;100554.19;221396;1277;139304;-59
2022/01/24 23:46:53;;;;;;;157.30;69.70;;;;;;;1.07;56.85;100547.02;221349;1274;140560;-57
2022/01/24 23:51:57;;;;;;;155.80;69.40;;;;;;;1.10;57.01;100542.30;221066;1277;139760;-58
2022/01/24 23:57:07;;;;;;;151.10;67.90;;;;;;;1.12;56.93;100540.55;221124;1274;140121;-59
